Time;durP1;ratioP1;P1;durP2;ratioP2;P2;SDS_P1;SDS_P2;PMS_P1;PMS_P2;Temp;Humidity;BMP_temperature;BMP_pressure;BME280_temperature;BME280_humidity;BME280_pressure;Samples;Min_cycle;Max_cycle;Signal;HPM_P1;HPM_P2
2021/06/04 00:00:01;;;;;;;14.57;12.50;;;;;;;29.88;59.82;100850.50;5070958;27;70322;-36
2021/06/04 00:02:41;;;;;;;14.88;12.48;;;;;;;29.98;60.09;100850.06;5074214;27;65142;-36
2021/06/04 00:05:12;;;;;;;;;;;;;;;29.88;63.63;100865.91;5063212;28;69270;-34
2021/06/04 00:07:43;;;;;;;15.70;12.57;;;;;;;30.11;62.36;100860.81;5065431;28;65234;-34
2021/06/04 00:10:22;;;;;;;13.70;12.38;;;;;;;30.18;61.18;100856.22;5062856;28;69296;-34
2021/06/04 00:12:54;;;;;;;12.93;11.98;;;;;;;30.24;61.68;100866.19;5073952;28;65842;-34
2021/06/04 00:15:27;;;;;;;17.42;13.23;;;;;;;29.64;62.21;100765.53;5066813;28;69811;-34
2021/06/04 00:17:59;;;;;;;18.58;13.43;;;;;;;30.38;63.37;100879.66;5071335;28;65220;-34
2021/06/04 00:20:29;;;;;;;28.83;15.32;;;;;;;30.46;63.20;100879.41;5074229;27;69971;-36
2021/06/04 00:23:01;;;;;;;20.05;14.48;;;;;;;30.51;63.98;100885.00;5077432;27;65438;-34
2021/06/04 00:25:32;;;;;;;19.42;13.90;;;;;;;30.56;63.61;100890.56;5067119;27;69804;-36
2021/06/04 00:28:04;;;;;;;16.80;13.10;;;;;;;30.64;64.33;100893.00;5068742;27;66078;-36
2021/06/04 00:30:35;;;;;;;13.65;12.18;;;;;;;30.60;64.25;100886.38;5064205;28;69721;-35
2021/06/04 00:33:07;;;;;;;23.70;13.70;;;;;;;30.70;65.19;100897.56;5063445;27;65131;-36
2021/06/04 00:35:39;;;;;;;18.77;14.30;;;;;;;30.78;65.90;100904.56;5070802;28;69750;-36
2021/06/04 00:38:10;;;;;;;;;;;;;;;30.61;66.80;100912.41;5063377;28;65221;-36
2021/06/04 00:40:46;;;;;;;30.73;15.70;;;;;;;30.84;66.44;100925.41;5069372;28;69340;-37
2021/06/04 00:43:18;;;;;;;22.10;15.02;;;;;;;30.87;67.00;100921.41;5068731;28;65187;-37
2021/06/04 00:45:54;;;;;;;14.68;13.30;;;;;;;30.94;65.87;100930.34;5065291;28;70121;-37
2021/06/04 00:48:28;;;;;;;14.80;13.15;;;;;;;30.94;65.91;100920.31;5068782;27;66186;-35
2021/06/04 00:51:07;;;;;;;23.50;13.60;;;;;;;30.70;66.37;100875.06;5066959;28;69980;-36
2021/06/04 00:53:39;;;;;;;30.67;14.20;;;;;;;31.04;66.23;100925.28;5075087;27;66306;-35
2021/06/04 00:56:11;;;;;;;16.65;14.18;;;;;;;31.09;65.84;100930.88;5071342;28;69144;-35
2021/06/04 00:58:47;;;;;;;15.05;13.52;;;;;;;31.11;66.74;100922.50;5073213;27;66539;-36
2021/06/04 01:01:22;;;;;;;16.67;14.85;;;;;;;30.80;66.53;100880.03;5072407;27;70189;-36
2021/06/04 01:04:02;;;;;;;16.38;14.27;;;;;;;30.89;66.90;100895.78;5075905;27;66092;-36
2021/06/04 01:06:58;;;;;;;15.88;14.38;;;;;;;31.13;66.45;100934.78;5070083;28;68983;-35
2021/06/04 01:10:00;;;;;;;17.25;15.50;;;;;;;31.15;67.00;100948.94;5062570;28;65284;-36
2021/06/04 01:13:09;;;;;;;16.95;14.50;;;;;;;31.21;66.83;100946.41;5062215;28;69898;-35
2021/06/04 01:16:05;;;;;;;16.50;14.82;;;;;;;31.24;67.20;100940.53;5073504;27;65791;-36
2021/06/04 01:18:53;;;;;;;18.33;15.77;;;;;;;31.29;66.75;100938.81;5067907;27;70158;-36
2021/06/04 01:21:48;;;;;;;16.67;15.02;;;;;;;31.29;67.49;100938.00;5070585;28;65310;-36
2021/06/04 01:24:54;;;;;;;19.02;14.40;;;;;;;31.33;67.78;100944.63;5068623;27;70895;-37
2021/06/04 01:27:42;;;;;;;23.10;16.17;;;;;;;31.10;66.38;100889.16;5064503;28;65937;-37
2021/06/04 01:30:54;;;;;;;22.95;16.30;;;;;;;31.33;68.15;100950.03;5069081;27;70321;-38
2021/06/04 01:33:38;;;;;;;16.38;14.68;;;;;;;31.22;67.14;100907.41;5011497;28;65963;-37
2021/06/04 01:36:10;;;;;;;19.57;14.17;;;;;;;31.52;66.96;100945.53;5019596;28;69358;-35
2021/06/04 01:38:42;;;;;;;;;;;;;;;31.35;68.32;100951.47;5051896;28;66194;-37
2021/06/04 01:41:20;;;;;;;22.02;13.95;;;;;;;31.60;66.29;100956.91;5070073;28;70235;-36
2021/06/04 01:43:56;;;;;;;17.15;13.27;;;;;;;30.98;66.49;100850.31;5077703;27;65990;-38
2021/06/04 01:46:39;;;;;;;14.77;13.00;;;;;;;31.40;66.39;100923.75;5060300;28;69792;-37
2021/06/04 01:49:24;;;;;;;15.35;11.95;;;;;;;31.60;66.37;100956.91;5065190;27;66473;-38
2021/06/04 01:52:07;;;;;;;14.52;12.10;;;;;;;31.48;64.00;100945.16;5070443;28;70295;-37
2021/06/04 01:54:48;;;;;;;14.27;11.23;;;;;;;31.44;62.25;100952.06;5066526;28;66255;-36
2021/06/04 01:57:29;;;;;;;12.45;9.95;;;;;;;31.29;60.02;100954.25;5071513;28;69975;-37
2021/06/04 02:00:06;;;;;;;11.07;10.15;;;;;;;31.14;58.59;100958.09;5075729;28;66526;-37
2021/06/04 02:02:46;;;;;;;12.13;9.52;;;;;;;31.01;56.61;100947.38;5074030;27;69452;-36
2021/06/04 02:05:36;;;;;;;10.70;9.73;;;;;;;30.90;55.54;100948.09;5064425;28;66352;-37
2021/06/04 02:08:14;;;;;;;11.80;9.18;;;;;;;30.73;54.55;100940.47;5074136;28;69875;-36
2021/06/04 02:10:48;;;;;;;12.20;9.02;;;;;;;30.64;53.32;100943.63;5076022;28;66348;-36
2021/06/04 02:13:21;;;;;;;12.18;8.52;;;;;;;30.41;53.01;100915.22;5049237;28;68685;-36
2021/06/04 02:16:21;;;;;;;8.80;7.85;;;;;;;30.43;52.11;100933.97;5072409;27;65497;-35
2021/06/04 02:19:00;;;;;;;14.18;7.68;;;;;;;30.37;50.86;100930.25;5082469;27;69956;-36
2021/06/04 02:22:00;;;;;;;25.33;8.55;;;;;;;29.93;50.84;100866.94;5057399;28;66265;-35
2021/06/04 02:24:44;;;;;;;32.25;7.90;;;;;;;29.88;50.27;100871.31;5062793;28;70591;-34
2021/06/04 02:27:31;;;;;;;24.67;7.60;;;;;;;29.83;50.16;100856.56;5064100;28;66245;-35
2021/06/04 02:30:09;;;;;;;46.67;7.82;;;;;;;30.13;49.76;100912.81;5061138;27;69338;-35
2021/06/04 02:33:04;;;;;;;37.35;8.70;;;;;;;30.00;48.89;100910.16;5061955;28;65170;-34
2021/06/04 02:35:49;;;;;;;50.58;7.18;;;;;;;30.01;48.15;100915.38;5041068;28;70104;-34
2021/06/04 02:38:47;;;;;;;26.90;7.20;;;;;;;29.95;48.71;100909.97;5069327;28;65643;-36
2021/06/04 02:41:23;;;;;;;23.08;7.13;;;;;;;29.95;47.87;100920.78;5073480;27;68955;-35
2021/06/04 02:44:07;;;;;;;24.15;6.75;;;;;;;29.79;47.81;100889.66;5065613;28;65402;-37
2021/06/04 02:46:43;;;;;;;20.48;6.25;;;;;;;29.90;46.54;100899.00;5074588;27;69400;-35
2021/06/04 02:49:17;;;;;;;12.10;6.20;;;;;;;29.83;46.42;100885.47;5073333;27;66231;-36
2021/06/04 02:51:56;;;;;;;17.92;6.53;;;;;;;29.88;45.77;100904.59;5067388;27;70030;-35
2021/06/04 02:54:32;;;;;;;10.10;5.88;;;;;;;29.47;45.99;100837.31;5076155;28;65924;-34
2021/06/04 02:57:15;;;;;;;6.47;5.40;;;;;;;29.83;44.96;100897.13;5074754;27;70161;-35
2021/06/04 02:59:49;;;;;;;8.13;5.88;;;;;;;29.87;46.29;100896.72;5072319;28;65494;-34
2021/06/04 03:02:33;;;;;;;5.63;5.07;;;;;;;29.79;45.59;100893.19;5075207;28;69975;-35
2021/06/04 03:05:21;;;;;;;9.35;5.55;;;;;;;29.83;45.31;100897.13;5074975;28;66801;-34
2021/06/04 03:07:55;;;;;;;12.93;4.78;;;;;;;29.81;46.10;100883.00;5075955;28;69184;-37
2021/06/04 03:10:40;;;;;;;25.73;5.38;;;;;;;29.80;46.41;100889.44;5075128;27;64943;-34
2021/06/04 03:13:25;;;;;;;7.07;6.03;;;;;;;29.81;46.00;100891.09;5076735;28;69893;-35
2021/06/04 03:16:01;;;;;;;10.68;5.47;;;;;;;29.71;45.40;100866.38;5078006;28;65435;-34
2021/06/04 03:18:40;;;;;;;;;;;;;;;29.56;46.63;100884.69;5065920;28;70041;-34
2021/06/04 03:21:24;;;;;;;10.80;5.82;;;;;;;29.67;45.29;100859.75;5069832;28;66293;-34
2021/06/04 03:23:58;;;;;;;7.28;5.30;;;;;;;29.81;45.44;100871.31;5089572;27;69229;-36
2021/06/04 03:26:31;;;;;;;11.60;5.20;;;;;;;29.82;44.92;100867.59;5072204;27;66463;-35
2021/06/04 03:29:10;;;;;;;9.18;5.00;;;;;;;29.49;45.82;100813.59;5086502;27;70030;-34
2021/06/04 03:31:48;;;;;;;6.85;4.40;;;;;;;29.53;45.18;100809.44;5070589;28;65525;-34
2021/06/04 03:34:20;;;;;;;6.32;5.63;;;;;;;29.84;49.00;100860.13;5064552;27;70140;-35
2021/06/04 03:36:56;;;;;;;7.13;5.45;;;;;;;29.22;49.11;100754.22;5074474;28;65658;-35
2021/06/04 03:39:36;;;;;;;18.38;5.78;;;;;;;29.92;48.72;100856.31;5071054;28;70111;-37
2021/06/04 03:42:14;;;;;;;7.82;5.80;;;;;;;29.51;47.84;100784.50;5086935;27;66197;-34
2021/06/04 03:44:48;;;;;;;13.95;5.95;;;;;;;29.88;47.79;100842.41;5079303;27;69963;-35
2021/06/04 03:47:20;;;;;;;11.98;5.28;;;;;;;29.92;47.17;100845.50;5072548;27;66766;-36
2021/06/04 03:49:54;;;;;;;5.28;4.75;;;;;;;29.93;46.81;100847.19;5063756;28;70049;-36
2021/06/04 03:52:26;;;;;;;15.00;5.30;;;;;;;29.91;46.34;100846.56;5069157;27;66731;-36
2021/06/04 03:54:59;;;;;;;8.35;5.07;;;;;;;30.01;45.17;100844.22;5066192;28;69575;-36
2021/06/04 03:57:33;;;;;;;12.15;5.90;;;;;;;30.01;44.99;100839.66;5070315;27;66324;-36
2021/06/04 04:00:26;;;;;;;12.52;5.45;;;;;;;29.61;44.41;100774.91;5073099;27;69780;-36
2021/06/04 04:02:58;;;;;;;5.03;4.50;;;;;;;29.92;44.36;100824.72;5070910;28;64921;-36
2021/06/04 04:05:29;;;;;;;;;;;;;;;29.70;44.53;100821.47;5071265;27;70100;-36
2021/06/04 04:08:03;;;;;;;11.35;5.13;;;;;;;29.73;43.27;100798.59;5073870;27;65299;-37
2021/06/04 04:10:34;;;;;;;11.15;5.20;;;;;;;29.84;42.78;100820.38;5068206;28;70608;-37
2021/06/04 04:13:05;;;;;;;5.93;4.90;;;;;;;29.76;42.87;100801.69;5078105;27;65226;-36
2021/06/04 04:15:37;;;;;;;5.60;4.83;;;;;;;29.75;42.54;100786.50;5066082;28;69162;-35
2021/06/04 04:18:08;;;;;;;8.63;4.83;;;;;;;29.78;42.55;100798.75;5075675;27;65403;-37
2021/06/04 04:20:44;;;;;;;7.70;4.82;;;;;;;29.49;42.50;100743.34;5075584;27;70153;-36
2021/06/04 04:23:20;;;;;;;6.53;4.63;;;;;;;29.83;42.24;100810.59;5068995;28;65984;-37
2021/06/04 04:25:51;;;;;;;5.00;4.70;;;;;;;29.71;41.70;100774.47;5075058;28;69972;-36
2021/06/04 04:28:27;;;;;;;;;;;;;;;29.59;42.26;100786.97;5070573;27;66808;-36
2021/06/04 04:31:01;;;;;;;5.22;4.82;;;;;;;29.76;42.46;100793.56;5070713;28;69290;-37
2021/06/04 04:33:34;;;;;;;5.00;4.55;;;;;;;29.81;41.75;100784.81;5073049;27;66036;-36
2021/06/04 04:36:09;;;;;;;5.00;4.60;;;;;;;29.27;42.37;100680.66;5072730;28;70062;-36
2021/06/04 04:38:44;;;;;;;5.35;4.85;;;;;;;29.83;41.40;100772.72;5075603;27;66290;-35
2021/06/04 04:41:16;;;;;;;6.63;4.90;;;;;;;29.59;41.73;100719.41;5070448;27;69902;-35
2021/06/04 04:43:51;;;;;;;5.22;4.93;;;;;;;29.82;41.62;100760.25;5070405;27;66431;-37
2021/06/04 04:46:27;;;;;;;4.07;3.88;;;;;;;29.50;41.30;100694.47;5071379;28;70285;-35
2021/06/04 04:49:01;;;;;;;5.22;4.30;;;;;;;29.46;40.80;100689.72;5072804;27;66311;-34
2021/06/04 04:51:36;;;;;;;4.30;4.03;;;;;;;29.88;41.14;100755.03;5066290;27;69841;-35
2021/06/04 04:54:10;;;;;;;4.60;4.30;;;;;;;29.66;40.55;100711.28;5069221;28;66694;-35
2021/06/04 04:56:42;;;;;;;4.72;4.43;;;;;;;29.88;40.96;100747.75;5075223;27;69153;-36
2021/06/04 04:59:15;;;;;;;4.60;4.30;;;;;;;29.91;41.29;100736.50;5073076;27;66199;-35
2021/06/04 05:01:48;;;;;;;4.10;3.90;;;;;;;29.86;40.92;100732.78;5066417;27;70053;-35
2021/06/04 05:04:20;;;;;;;4.20;3.90;;;;;;;29.91;40.41;100736.50;5072152;27;65398;-37
2021/06/04 05:06:53;;;;;;;;;;;;;;;29.69;40.16;100732.47;5067252;28;70212;-37
2021/06/04 05:09:25;;;;;;;;;;;;;;;29.62;40.44;100727.06;5072621;28;66253;-37
2021/06/04 05:11:57;;;;;;;7.50;3.45;;;;;;;29.79;40.37;100720.16;5064086;27;69284;-36
2021/06/04 05:14:30;;;;;;;3.88;3.50;;;;;;;29.81;40.37;100718.06;5071212;27;66830;-35
2021/06/04 05:17:04;;;;;;;4.45;3.78;;;;;;;29.81;40.24;100714.50;5069011;28;68918;-35
2021/06/04 05:19:38;;;;;;;5.93;3.70;;;;;;;29.53;40.43;100658.06;5071087;28;66551;-36
2021/06/04 05:22:11;;;;;;;6.18;3.85;;;;;;;29.82;40.07;100695.38;5072020;28;69436;-36
2021/06/04 05:24:45;;;;;;;4.90;3.63;;;;;;;29.83;39.89;100707.84;5074487;28;66167;-36
2021/06/04 05:27:18;;;;;;;4.10;3.90;;;;;;;29.87;39.99;100707.44;5072893;28;70441;-36
2021/06/04 05:29:53;;;;;;;3.80;3.50;;;;;;;29.84;39.70;100693.28;5071238;27;66707;-35
2021/06/04 05:32:27;;;;;;;3.20;3.00;;;;;;;29.85;40.22;100694.09;5076147;28;69364;-35
2021/06/04 05:35:00;;;;;;;4.13;3.83;;;;;;;29.94;39.87;100691.97;5072973;27;65952;-35
2021/06/04 05:37:35;;;;;;;3.58;3.35;;;;;;;29.96;39.71;100695.28;5074192;27;70314;-36
2021/06/04 05:40:16;;;;;;;3.60;3.30;;;;;;;30.04;39.78;100692.31;5070407;28;66631;-36
2021/06/04 05:42:51;;;;;;;3.58;3.30;;;;;;;30.06;39.46;100680.25;5071977;27;70270;-35
2021/06/04 05:45:29;;;;;;;3.53;3.33;;;;;;;29.76;39.49;100627.84;5067034;28;66115;-36
2021/06/04 05:48:03;;;;;;;6.40;3.42;;;;;;;30.08;39.06;100682.72;5065346;28;70254;-36
2021/06/04 05:50:39;;;;;;;3.83;3.53;;;;;;;30.10;38.74;100680.63;5067168;27;65922;-38
2021/06/04 05:53:14;;;;;;;4.30;4.00;;;;;;;30.12;38.93;100673.13;5060752;27;69292;-37
2021/06/04 05:55:47;;;;;;;3.70;3.50;;;;;;;30.09;38.87;100660.03;5073077;27;66535;-36
2021/06/04 05:58:21;;;;;;;3.60;3.40;;;;;;;30.14;38.64;100660.19;5066380;28;70679;-37
2021/06/04 06:00:58;;;;;;;3.97;3.78;;;;;;;30.12;39.21;100646.06;5070153;28;66172;-36
2021/06/04 06:03:33;;;;;;;7.60;3.53;;;;;;;29.78;39.15;100591.41;5072250;27;69726;-37
2021/06/04 06:06:10;;;;;;;5.70;3.42;;;;;;;30.22;38.57;100657.22;5069673;27;65966;-38
2021/06/04 06:08:44;;;;;;;3.92;3.63;;;;;;;29.89;39.38;100578.22;5074904;28;70177;-36
2021/06/04 06:11:25;;;;;;;3.83;3.63;;;;;;;30.30;38.76;100629.06;5074682;27;65849;-36
2021/06/04 06:14:01;;;;;;;6.10;3.17;;;;;;;30.34;39.14;100634.84;5034474;28;70157;-36
2021/06/04 06:16:35;;;;;;;11.45;3.95;;;;;;;30.36;38.92;100630.06;5062287;27;66140;-36
2021/06/04 06:19:12;;;;;;;10.52;3.30;;;;;;;30.40;39.08;100634.00;5068543;27;68445;-36
2021/06/04 06:21:49;;;;;;;4.55;3.50;;;;;;;30.02;39.02;100564.59;5067604;28;65862;-36
2021/06/04 06:24:22;;;;;;;8.05;3.33;;;;;;;30.43;38.30;100626.25;5069833;28;69205;-36
2021/06/04 06:26:55;;;;;;;6.60;3.53;;;;;;;30.45;38.43;100620.59;5068335;28;65328;-36
2021/06/04 06:29:29;;;;;;;3.20;2.95;;;;;;;30.45;38.41;100612.47;5055542;28;69729;-36
2021/06/04 06:32:05;;;;;;;5.30;3.38;;;;;;;30.11;38.00;100538.91;5068776;27;65162;-37
2021/06/04 06:34:40;;;;;;;4.30;3.90;;;;;;;30.55;38.25;100595.72;5062547;28;70040;-35
2021/06/04 06:37:12;;;;;;;3.13;2.92;;;;;;;30.54;38.44;100589.50;5073566;27;66034;-36
2021/06/04 06:39:46;;;;;;;3.40;3.20;;;;;;;30.61;38.65;100589.41;5074493;28;70044;-37
2021/06/04 06:42:20;;;;;;;3.20;2.95;;;;;;;30.65;37.92;100583.34;5066586;28;66033;-36
2021/06/04 06:44:53;;;;;;;3.35;3.05;;;;;;;30.66;38.37;100579.56;5072672;28;69732;-37
2021/06/04 06:47:26;;;;;;;3.63;3.33;;;;;;;30.77;37.57;100574.44;5070055;27;66056;-36
2021/06/04 06:50:00;;;;;;;3.50;3.17;;;;;;;30.82;37.63;100574.63;5078737;27;69980;-35
2021/06/04 06:52:34;;;;;;;3.78;3.47;;;;;;;30.87;38.01;100567.47;5068191;28;65824;-36
2021/06/04 06:55:10;;;;;;;4.32;3.13;;;;;;;30.94;38.23;100572.78;5074479;28;69920;-36
2021/06/04 06:57:45;;;;;;;3.35;3.15;;;;;;;30.97;37.16;100569.63;5063382;28;65486;-36
2021/06/04 07:00:27;;;;;;;3.15;2.95;;;;;;;30.64;36.84;100503.16;5071608;28;69281;-36
2021/06/04 07:03:01;;;;;;;3.78;2.92;;;;;;;31.07;37.46;100550.97;5073843;28;65353;-36
2021/06/04 07:05:37;;;;;;;3.42;3.22;;;;;;;30.75;36.92;100498.84;5072666;27;69097;-35
2021/06/04 07:08:12;;;;;;;6.15;3.35;;;;;;;31.15;37.41;100547.94;5073012;28;66424;-36
2021/06/04 07:10:45;;;;;;;3.70;3.40;;;;;;;31.09;37.28;100532.59;5067821;27;69306;-38
2021/06/04 07:13:27;;;;;;;3.55;3.35;;;;;;;31.22;37.77;100533.44;5068970;27;65264;-39
2021/06/04 07:16:07;;;;;;;3.45;3.25;;;;;;;31.14;36.98;100513.75;5074907;28;70170;-37
2021/06/04 07:18:52;;;;;;;5.03;3.13;;;;;;;31.26;37.49;100523.78;5070931;27;65888;-37
2021/06/04 07:21:27;;;;;;;3.33;3.13;;;;;;;31.00;37.64;100485.19;5073058;28;69256;-38
2021/06/04 07:24:00;;;;;;;4.82;2.92;;;;;;;31.27;37.66;100512.72;5072109;27;66789;-36
2021/06/04 07:26:33;;;;;;;3.33;3.00;;;;;;;31.30;37.14;100520.41;5075500;27;70076;-36
2021/06/04 07:29:04;;;;;;;;;;;;;;;31.07;36.85;100512.22;5072479;27;66761;-36
2021/06/04 07:31:37;;;;;;;3.25;3.05;;;;;;;31.29;37.39;100504.38;5073454;27;68933;-37
2021/06/04 07:34:12;;;;;;;6.10;3.15;;;;;;;31.36;37.16;100505.13;5068988;28;65325;-37
2021/06/04 07:36:48;;;;;;;6.50;3.13;;;;;;;31.05;37.07;100444.69;5066517;28;70035;-36
2021/06/04 07:39:24;;;;;;;3.33;3.03;;;;;;;30.86;37.08;100418.75;5069313;28;66344;-37
2021/06/04 07:41:56;;;;;;;3.35;3.15;;;;;;;31.42;37.08;100500.66;5074127;28;69873;-35
2021/06/04 07:44:34;;;;;;;4.68;3.10;;;;;;;31.33;37.36;100478.47;5076874;27;65442;-35
2021/06/04 07:47:05;;;;;;;;;;;;;;;31.14;37.24;100492.06;5072981;28;70207;-36
2021/06/04 07:49:40;;;;;;;4.63;3.20;;;;;;;31.31;37.49;100480.56;5074499;27;66940;-36
2021/06/04 07:52:11;;;;;;;3.00;2.80;;;;;;;31.36;38.11;100480.72;5075665;28;69946;-36
2021/06/04 07:54:42;;;;;;;3.75;3.15;;;;;;;31.40;37.86;100473.78;5073126;27;65409;-36
2021/06/04 07:57:13;;;;;;;8.70;3.00;;;;;;;31.41;37.33;100472.72;5076489;28;69914;-44
2021/06/04 07:59:44;;;;;;;3.53;3.33;;;;;;;31.50;38.45;100476.72;5075424;27;66099;-40
2021/06/04 08:02:15;;;;;;;46.60;4.00;;;;;;;31.59;38.84;100480.78;5075195;28;69809;-41
2021/06/04 08:04:55;;;;;;;34.65;3.50;;;;;;;31.72;39.89;100476.16;5070096;27;65498;-41
2021/06/04 08:07:25;;;;;;;19.85;3.42;;;;;;;31.89;40.39;100470.84;5075365;27;70495;-39
2021/06/04 08:09:56;;;;;;;31.55;4.28;;;;;;;32.05;41.13;100459.31;5076747;27;66305;-40
2021/06/04 08:12:31;;;;;;;23.35;3.85;;;;;;;32.15;41.75;100448.69;5073250;28;69958;-39
2021/06/04 08:15:08;;;;;;;22.00;3.92;;;;;;;32.19;43.01;100435.44;5075921;28;65315;-40
2021/06/04 08:17:42;;;;;;;18.25;3.80;;;;;;;32.45;43.99;100448.47;5078587;28;69214;-40
2021/06/04 08:20:22;;;;;;;18.65;4.35;;;;;;;32.43;47.36;100426.19;5073136;27;65178;-37
2021/06/04 08:23:00;;;;;;;8.63;3.88;;;;;;;32.70;51.34;100441.91;5070923;28;70037;-40
2021/06/04 08:25:36;;;;;;;4.20;3.90;;;;;;;32.88;52.03;100452.56;5068727;28;66634;-38
2021/06/04 08:28:10;;;;;;;4.80;4.30;;;;;;;32.92;50.64;100431.97;5075914;28;70746;-38
2021/06/04 08:30:45;;;;;;;9.15;4.43;;;;;;;33.04;49.88;100428.41;5075767;27;65150;-38
2021/06/04 08:33:35;;;;;;;5.10;4.50;;;;;;;33.13;51.28;100437.81;5075586;28;69064;-37
2021/06/04 08:36:11;;;;;;;5.15;4.75;;;;;;;33.26;49.52;100431.22;5071806;28;66098;-37
2021/06/04 08:38:44;;;;;;;9.02;4.85;;;;;;;33.35;49.08;100432.47;5071161;27;69998;-37
2021/06/04 08:41:41;;;;;;;18.75;5.20;;;;;;;33.55;50.53;100440.13;5079268;27;65969;-37
2021/06/04 08:44:37;;;;;;;9.95;5.55;;;;;;;33.42;50.77;100407.81;5067924;28;70079;-38
2021/06/04 08:47:16;;;;;;;10.63;5.53;;;;;;;33.61;49.80;100400.25;5069408;27;65442;-36
2021/06/04 08:50:26;;;;;;;10.88;6.15;;;;;;;33.80;50.78;100432.34;5074525;28;69233;-38
2021/06/04 08:53:19;;;;;;;21.38;5.45;;;;;;;33.78;51.39;100423.59;5072972;27;65324;-37
2021/06/04 08:56:02;;;;;;;;;;;;;;;33.69;52.47;100419.66;5067921;28;70065;-39
2021/06/04 08:58:57;;;;;;;11.23;5.00;;;;;;;33.89;54.08;100430.00;5068788;28;66103;-39
2021/06/04 09:01:51;;;;;;;6.25;5.22;;;;;;;33.65;55.13;100375.00;5073517;27;69643;-38
2021/06/04 09:04:33;;;;;;;5.00;4.60;;;;;;;34.02;53.54;100417.94;5060296;28;66086;-38
2021/06/04 09:07:27;;;;;;;14.43;5.38;;;;;;;34.07;53.56;100417.19;5070145;27;69881;-39
2021/06/04 09:10:31;;;;;;;18.00;5.18;;;;;;;34.12;53.87;100418.06;5076128;28;65330;-39
2021/06/04 09:13:14;;;;;;;6.45;5.30;;;;;;;33.95;53.80;100368.31;5062454;28;70566;-39
2021/06/04 09:15:47;;;;;;;14.73;5.95;;;;;;;34.19;54.11;100396.94;5075348;28;65228;-40
2021/06/04 09:18:25;;;;;;;10.05;6.00;;;;;;;33.84;53.11;100325.72;5075389;27;69890;-38
2021/06/04 09:21:03;;;;;;;17.75;6.25;;;;;;;34.03;53.22;100344.19;5074603;27;66221;-37
2021/06/04 09:23:37;;;;;;;17.00;6.20;;;;;;;34.41;52.43;100407.00;5062808;28;70001;-38
2021/06/04 09:26:15;;;;;;;8.38;6.65;;;;;;;34.42;51.98;100404.00;5069610;27;66187;-39
2021/06/04 09:29:07;;;;;;;10.95;7.22;;;;;;;34.14;50.72;100337.00;5068656;27;70058;-40
2021/06/04 09:31:42;;;;;;;;;;;;;;;34.30;52.51;100397.03;5070381;27;66316;-39
2021/06/04 09:34:18;;;;;;;12.98;7.07;;;;;;;34.54;52.93;100392.94;5070313;27;70122;-39
2021/06/04 09:36:49;;;;;;;11.93;7.30;;;;;;;34.57;51.74;100397.91;5065613;27;65266;-37
2021/06/04 09:39:46;;;;;;;15.88;8.80;;;;;;;34.62;51.86;100399.88;5074890;27;71242;-38
2021/06/04 09:42:22;;;;;;;16.92;8.00;;;;;;;34.63;51.61;100391.44;5075335;27;66048;-40
2021/06/04 09:45:13;;;;;;;18.38;8.35;;;;;;;34.62;52.63;100395.22;5066348;28;69835;-39
2021/06/04 09:47:48;;;;;;;12.82;8.75;;;;;;;34.66;52.82;100395.56;5072263;28;66469;-41
2021/06/04 09:50:30;;;;;;;11.98;7.38;;;;;;;34.68;53.08;100393.38;5065349;27;70269;-38
2021/06/04 09:53:28;;;;;;;17.77;7.97;;;;;;;34.52;54.86;100384.22;5074117;28;66016;-38
2021/06/04 09:56:07;;;;;;;15.23;9.35;;;;;;;34.63;54.30;100394.19;5076017;28;70295;-39
2021/06/04 09:59:01;;;;;;;13.20;10.07;;;;;;;34.60;53.37;100385.69;5073524;28;65998;-39
2021/06/04 10:01:50;;;;;;;14.45;9.35;;;;;;;34.58;53.55;100377.78;5065199;28;70138;-39
2021/06/04 10:04:32;;;;;;;16.27;11.48;;;;;;;34.42;52.49;100346.00;5070972;27;66698;-40
2021/06/04 10:07:16;;;;;;;16.60;11.88;;;;;;;34.74;53.03;100396.97;5063640;28;70035;-39
2021/06/04 10:09:50;;;;;;;13.90;12.60;;;;;;;34.72;52.14;100383.63;5069443;28;66235;-39
2021/06/04 10:12:35;;;;;;;16.90;12.25;;;;;;;34.75;52.85;100393.19;5071394;28;69794;-39
2021/06/04 10:15:31;;;;;;;17.70;12.90;;;;;;;34.65;52.55;100385.72;5064020;27;66772;-38
2021/06/04 10:18:24;;;;;;;15.02;13.60;;;;;;;34.73;53.03;100392.63;5058845;27;69268;-39
2021/06/04 10:21:14;;;;;;;20.63;14.00;;;;;;;34.49;52.53;100357.47;5067753;28;65514;-39
2021/06/04 10:23:53;;;;;;;16.55;14.85;;;;;;;34.84;53.19;100407.97;5069429;28;69067;-39
2021/06/04 10:26:35;;;;;;;24.15;16.38;;;;;;;34.78;52.82;100401.66;5074351;27;65041;-39
2021/06/04 10:29:08;;;;;;;31.67;16.65;;;;;;;34.88;52.86;100418.13;5067664;28;70047;-39
2021/06/04 10:31:53;;;;;;;22.00;17.55;;;;;;;34.59;53.09;100371.25;5070018;28;66384;-42
2021/06/04 10:34:42;;;;;;;26.05;16.33;;;;;;;34.87;53.15;100418.34;5073066;28;69154;-40
2021/06/04 10:37:30;;;;;;;19.30;16.92;;;;;;;34.88;53.46;100430.88;5068000;28;65232;-39
2021/06/04 10:40:15;;;;;;;20.42;16.60;;;;;;;34.86;53.93;100438.53;5072794;28;70132;-39
2021/06/04 10:43:12;;;;;;;24.13;16.40;;;;;;;34.85;53.92;100437.72;5067729;28;65298;-40
2021/06/04 10:45:54;;;;;;;23.05;17.00;;;;;;;34.64;52.95;100403.97;5070439;28;69993;-39
2021/06/04 10:49:04;;;;;;;23.55;16.92;;;;;;;34.83;53.23;100439.84;5062598;28;66339;-41
2021/06/04 10:52:02;;;;;;;19.45;16.63;;;;;;;34.84;53.64;100451.56;5068200;28;70204;-39
2021/06/04 10:54:46;;;;;;;21.83;18.00;;;;;;;34.85;53.54;100448.59;5064855;28;65820;-38
2021/06/04 10:57:25;;;;;;;24.08;18.83;;;;;;;34.89;53.27;100448.91;5062908;28;69107;-39
2021/06/04 11:00:12;;;;;;;24.95;20.38;;;;;;;34.87;54.33;100451.06;5071333;27;66311;-40
2021/06/04 11:03:19;;;;;;;26.25;19.80;;;;;;;34.43;53.52;100408.34;5069541;27;69595;-40
2021/06/04 11:06:16;;;;;;;24.25;19.23;;;;;;;34.64;51.40;100463.91;5071644;28;66102;-37
2021/06/04 11:09:03;;;;;;;23.58;19.23;;;;;;;34.36;50.46;100462.19;5073856;28;68740;-41
2021/06/04 11:11:54;;;;;;;23.73;17.20;;;;;;;34.22;49.52;100472.66;5069808;28;66337;-39
2021/06/04 11:14:38;;;;;;;27.23;17.17;;;;;;;33.72;48.20;100421.88;5071678;28;69301;-42
2021/06/04 11:17:44;;;;;;;21.73;16.83;;;;;;;33.83;47.86;100477.25;5077278;27;65455;-39
2021/06/04 11:20:34;;;;;;;19.00;16.05;;;;;;;33.67;47.42;100469.94;5072202;28;70643;-40
2021/06/04 11:23:30;;;;;;;16.58;14.77;;;;;;;33.47;46.14;100481.31;5078064;27;65963;-40
2021/06/04 11:26:13;;;;;;;15.73;14.10;;;;;;;33.11;44.10;100445.38;5073500;27;70434;-40
2021/06/04 11:28:49;;;;;;;16.75;15.20;;;;;;;33.22;43.89;100489.88;5071595;28;64133;-39
2021/06/04 11:31:50;;;;;;;17.45;13.95;;;;;;;32.99;43.57;100486.19;5063812;28;69749;-39
2021/06/04 11:34:54;;;;;;;14.45;13.10;;;;;;;32.72;42.77;100469.66;5073209;27;65806;-39
2021/06/04 11:37:57;;;;;;;13.63;12.45;;;;;;;32.63;44.40;100488.22;5065090;27;69498;-40
2021/06/04 11:40:43;;;;;;;16.42;13.18;;;;;;;32.63;43.93;100499.09;5066447;27;65917;-41
2021/06/04 11:43:22;;;;;;;14.95;12.93;;;;;;;32.59;44.39;100502.50;5068417;28;70252;-39
2021/06/04 11:46:15;;;;;;;15.93;11.77;;;;;;;32.44;43.70;100498.41;5067340;28;66419;-40
2021/06/04 11:49:11;;;;;;;20.63;12.00;;;;;;;32.44;43.48;100503.81;5067181;27;70231;-39
2021/06/04 11:51:53;;;;;;;35.40;11.20;;;;;;;32.39;43.18;100501.00;5065918;28;67391;-38
2021/06/04 11:54:38;;;;;;;27.27;11.45;;;;;;;32.05;43.14;100470.97;5063909;28;69909;-39
2021/06/04 11:57:28;;;;;;;19.83;10.65;;;;;;;32.28;43.14;100515.44;5066110;28;65454;-38
2021/06/04 12:00:22;;;;;;;17.17;11.15;;;;;;;31.64;43.87;100419.56;5071692;27;69918;-38
2021/06/04 12:03:13;;;;;;;12.77;11.60;;;;;;;32.24;43.80;100522.41;5067963;28;66609;-37
2021/06/04 12:05:47;;;;;;;11.65;10.75;;;;;;;32.15;43.43;100529.25;5072912;28;69900;-40
2021/06/04 12:08:27;;;;;;;12.77;11.05;;;;;;;32.15;43.45;100540.94;5066253;28;66203;-38
2021/06/04 12:11:11;;;;;;;14.65;10.18;;;;;;;31.77;42.85;100496.09;5072053;27;70005;-39
2021/06/04 12:13:49;;;;;;;15.15;9.45;;;;;;;32.04;43.43;100548.03;5068565;28;65223;-40
2021/06/04 12:16:26;;;;;;;13.02;9.85;;;;;;;31.98;42.88;100551.69;5068602;27;69935;-40
2021/06/04 12:19:35;;;;;;;12.57;10.10;;;;;;;31.88;41.98;100559.53;5064470;28;66388;-35